Terminal Aerodrome Forecast
Issued by NWS Bismarck, ND

Home | Current Version | Previous Version | Text Only | Print | Product List | Glossary On
Versions: 1 2 3 4 5 6 7 8 9 10 11 12 13 14 15 16 17
764
FTUS43 KBIS 121739
TAFISN
TAF
KISN 121739Z 1218/1318 09006KT P6SM SCT150
     FM122300 11009KT P6SM BKN110
     FM130500 13011KT 5SM -SN BR OVC020
     FM131100 14012KT P6SM OVC015=

USA.gov is the U.S. government's official web portal to all federal, state and local government web resources and services.